Time;durP1;ratioP1;P1;durP2;ratioP2;P2;SDS_P1;SDS_P2;PMS_P1;PMS_P2;Temp;Humidity;BMP_temperature;BMP_pressure;BME280_temperature;BME280_humidity;BME280_pressure;Samples;Min_cycle;Max_cycle;Signal;HPM_P1;HPM_P2
2022/04/02 00:00:52;;;;;;;5.72;2.63;;;2.20;77.30;;;;;;5053181;28;20045;-74
2022/04/02 00:03:19;;;;;;;3.53;2.53;;;2.20;77.70;;;;;;5053176;28;20151;-74
2022/04/02 00:05:45;;;;;;;3.28;2.20;;;2.10;78.00;;;;;;5053728;28;20466;-74
2022/04/02 00:08:11;;;;;;;5.53;2.60;;;2.10;78.30;;;;;;5053470;28;20097;-74
2022/04/02 00:10:37;;;;;;;3.50;2.10;;;2.20;79.20;;;;;;5053034;28;20435;-74
2022/04/02 00:13:03;;;;;;;3.67;2.20;;;2.10;80.20;;;;;;5036629;28;20037;-74
2022/04/02 00:15:29;;;;;;;2.97;1.92;;;2.00;81.10;;;;;;5053585;28;20406;-74
2022/04/02 00:17:54;;;;;;;2.67;2.05;;;2.00;81.90;;;;;;5053242;28;20037;-74
2022/04/02 00:20:20;;;;;;;5.43;1.95;;;1.90;82.20;;;;;;5053052;28;20036;-74
2022/04/02 00:25:30;;;;;;;4.47;2.42;;;1.90;83.40;;;;;;5053162;28;20052;-74
2022/04/02 00:27:56;;;;;;;5.10;2.50;;;1.80;84.10;;;;;;5053177;28;20119;-74
2022/04/02 00:30:21;;;;;;;7.07;2.72;;;1.80;85.30;;;;;;5053243;28;20517;-74
2022/04/02 00:32:47;;;;;;;4.18;2.72;;;1.80;86.40;;;;;;5053072;28;20147;-74
2022/04/02 00:35:13;;;;;;;5.63;2.30;;;1.70;87.70;;;;;;5053158;28;20040;-74
2022/04/02 00:37:39;;;;;;;4.90;2.40;;;1.60;89.20;;;;;;5053246;28;20051;-73
2022/04/02 00:40:05;;;;;;;5.15;2.38;;;1.60;90.00;;;;;;5053049;28;20044;-73
2022/04/02 00:42:30;;;;;;;6.70;2.60;;;1.60;90.50;;;;;;5053016;28;20134;-74
2022/04/02 00:44:56;;;;;;;5.85;2.65;;;1.60;91.00;;;;;;5053140;28;20699;-74
2022/04/02 00:47:22;;;;;;;6.22;2.60;;;1.50;91.60;;;;;;5054021;28;20451;-74
2022/04/02 00:49:47;;;;;;;3.75;2.35;;;1.50;92.40;;;;;;5057056;28;20396;-74
2022/04/02 00:52:14;;;;;;;6.53;3.22;;;1.50;92.80;;;;;;5056712;28;20504;-74
2022/04/02 00:54:40;;;;;;;3.75;2.40;;;1.50;93.40;;;;;;5056862;28;20086;-74
2022/04/02 00:57:06;;;;;;;4.30;2.17;;;1.50;93.90;;;;;;5040273;28;20158;-74
2022/04/02 00:59:32;;;;;;;3.88;2.67;;;1.60;94.20;;;;;;5056861;28;20033;-74
2022/04/02 01:01:57;;;;;;;8.07;2.10;;;1.50;94.30;;;;;;5056574;28;20039;-74
2022/04/02 01:04:23;;;;;;;5.07;2.88;;;1.60;94.70;;;;;;5056343;28;20071;-74
2022/04/02 01:06:50;;;;;;;6.68;2.67;;;1.60;94.80;;;;;;5056706;28;20409;-74
2022/04/02 01:09:16;;;;;;;6.15;2.88;;;1.60;95.00;;;;;;5056289;28;20082;-74
2022/04/02 01:11:43;;;;;;;3.83;2.38;;;1.60;95.80;;;;;;5056240;28;20076;-73
2022/04/02 01:14:10;;;;;;;6.78;2.88;;;1.50;95.80;;;;;;5056482;28;20032;-74
2022/04/02 01:16:36;;;;;;;5.03;2.63;;;1.50;96.30;;;;;;5039504;28;20036;-74
2022/04/02 01:19:03;;;;;;;4.97;3.40;;;1.50;96.50;;;;;;5039789;28;20047;-73
2022/04/02 01:21:29;;;;;;;6.25;2.97;;;1.50;96.70;;;;;;5055752;28;20455;-74
2022/04/02 01:23:58;;;;;;;7.50;2.72;;;1.50;97.20;;;;;;5055902;28;20059;-74
2022/04/02 01:26:25;;;;;;;4.95;2.60;;;1.50;97.60;;;;;;5056209;28;20503;-74
2022/04/02 01:28:53;;;;;;;5.97;2.67;;;1.50;97.90;;;;;;5055966;28;20036;-74
2022/04/02 01:31:23;;;;;;;5.75;2.67;;;1.50;98.40;;;;;;5039111;28;20047;-74
2022/04/02 01:33:49;;;;;;;3.55;2.70;;;1.50;98.90;;;;;;5039345;28;20047;-74
2022/04/02 01:36:16;;;;;;;5.57;2.83;;;1.50;98.90;;;;;;5055874;28;20524;-75
2022/04/02 01:38:42;;;;;;;7.03;3.08;;;1.50;99.40;;;;;;5055509;28;20048;-74
2022/04/02 01:41:08;;;;;;;6.72;3.28;;;1.50;99.80;;;;;;5055459;28;20417;-75
2022/04/02 01:43:34;;;;;;;5.57;3.22;;;1.50;99.90;;;;;;5055554;28;20055;-75
2022/04/02 01:46:01;;;;;;;6.43;3.15;;;1.50;99.90;;;;;;5055539;28;20037;-75
2022/04/02 01:48:27;;;;;;;6.32;3.20;;;1.40;99.90;;;;;;5055546;28;20044;-75
2022/04/02 01:50:53;;;;;;;5.40;3.20;;;1.40;99.90;;;;;;5055485;28;20033;-75
2022/04/02 01:53:20;;;;;;;4.38;2.67;;;1.30;99.90;;;;;;5055249;28;20036;-75
2022/04/02 01:55:46;;;;;;;4.70;2.63;;;1.30;99.90;;;;;;5055360;28;20676;-72
2022/04/02 01:58:12;;;;;;;5.40;2.55;;;1.30;99.90;;;;;;5055098;28;20687;-74
2022/04/02 02:00:38;;;;;;;5.45;3.78;;;1.30;99.90;;;;;;5054631;28;20036;-75
2022/04/02 02:03:04;;;;;;;6.57;2.53;;;1.20;99.90;;;;;;5055269;28;20106;-75
2022/04/02 02:05:29;;;;;;;5.13;2.90;;;1.20;99.90;;;;;;5055465;28;20150;-75
2022/04/02 02:07:55;;;;;;;5.75;2.78;;;1.20;99.90;;;;;;5038568;28;20052;-74
2022/04/02 02:10:21;;;;;;;5.47;2.88;;;1.20;99.90;;;;;;5054902;28;20032;-74
2022/04/02 02:12:47;;;;;;;5.68;2.35;;;1.20;99.90;;;;;;5055055;28;20033;-74
2022/04/02 02:15:16;;;;;;;5.30;2.63;;;1.20;99.90;;;;;;5055350;28;20036;-75
2022/04/02 02:17:47;;;;;;;4.78;3.17;;;1.10;99.90;;;;;;5038652;28;20044;-75
2022/04/02 02:20:14;;;;;;;6.80;2.72;;;1.10;99.90;;;;;;5054788;28;20044;-75
2022/04/02 02:22:41;;;;;;;4.13;2.58;;;1.10;99.90;;;;;;5038124;28;20416;-75
2022/04/02 02:25:09;;;;;;;4.95;2.80;;;1.10;99.90;;;;;;5038583;28;20067;-75
2022/04/02 02:27:35;;;;;;;7.05;3.45;;;1.10;99.90;;;;;;5054787;28;20127;-75
2022/04/02 02:30:05;;;;;;;3.67;2.45;;;1.10;99.90;;;;;;5054707;28;20101;-75
2022/04/02 02:32:36;;;;;;;5.93;3.13;;;1.10;99.90;;;;;;5054814;28;20120;-73
2022/04/02 02:38:09;;;;;;;5.82;2.40;;;1.10;99.90;;;;;;5054666;28;20083;-73
2022/04/02 02:40:36;;;;;;;4.95;2.50;;;1.10;99.90;;;;;;5054270;28;20091;-73
2022/04/02 02:43:03;;;;;;;4.28;2.45;;;1.10;99.90;;;;;;5054363;28;20115;-73
2022/04/02 02:45:31;;;;;;;4.32;2.70;;;1.10;99.90;;;;;;5054735;28;20090;-72
2022/04/02 02:47:58;;;;;;;4.25;2.80;;;1.20;99.90;;;;;;5054768;28;20403;-73
2022/04/02 02:50:25;;;;;;;3.35;2.20;;;1.10;99.90;;;;;;5037805;28;20098;-73
2022/04/02 02:52:50;;;;;;;5.57;2.80;;;1.10;99.90;;;;;;5054126;28;20047;-73
2022/04/02 02:55:16;;;;;;;4.78;2.25;;;1.10;99.90;;;;;;5054326;28;20127;-72
2022/04/02 02:57:43;;;;;;;7.70;1.90;;;1.10;99.90;;;;;;5054262;28;20037;-72
2022/04/02 03:00:10;;;;;;;8.68;2.70;;;1.10;99.90;;;;;;5053830;28;20554;-72
2022/04/02 03:02:39;;;;;;;4.25;2.30;;;1.10;99.90;;;;;;5054313;28;20052;-75
2022/04/02 03:05:16;;;;;;;6.45;2.63;;;1.10;99.90;;;;;;5054155;28;20404;-75
2022/04/02 03:07:48;;;;;;;5.30;2.47;;;1.10;99.90;;;;;;5054206;28;20078;-75
2022/04/02 03:10:18;;;;;;;4.70;2.92;;;1.10;99.90;;;;;;5037112;28;20045;-75
2022/04/02 03:12:45;;;;;;;9.55;2.85;;;1.10;99.90;;;;;;5054000;28;20075;-75
2022/04/02 03:15:11;;;;;;;3.95;1.95;;;1.10;99.90;;;;;;5053957;28;20036;-75
2022/04/02 03:17:38;;;;;;;4.07;2.42;;;1.10;99.90;;;;;;5053927;28;20038;-75
2022/04/02 03:20:05;;;;;;;6.70;2.28;;;1.10;99.90;;;;;;5036990;28;20040;-75
2022/04/02 03:22:35;;;;;;;4.75;2.33;;;1.10;99.90;;;;;;5037159;28;20119;-74
2022/04/02 03:25:02;;;;;;;7.00;2.20;;;1.10;99.90;;;;;;5037178;28;20032;-75
2022/04/02 03:27:27;;;;;;;4.97;2.40;;;1.10;99.90;;;;;;5054057;28;20402;-75
2022/04/02 03:29:53;;;;;;;6.45;3.00;;;1.10;99.90;;;;;;5053872;28;20044;-75
2022/04/02 03:32:18;;;;;;;5.30;2.20;;;1.00;99.90;;;;;;5053817;28;20493;-74
2022/04/02 03:34:44;;;;;;;6.82;2.33;;;1.00;99.90;;;;;;5053749;28;20509;-75
2022/04/02 03:37:10;;;;;;;6.82;2.58;;;1.10;99.90;;;;;;5053626;28;20032;-75
2022/04/02 03:39:35;;;;;;;6.13;2.45;;;1.00;99.90;;;;;;5037285;28;20042;-75
2022/04/02 03:42:01;;;;;;;11.38;4.07;;;1.00;99.90;;;;;;5053324;28;20094;-75
2022/04/02 03:44:27;;;;;;;5.13;2.95;;;1.00;99.90;;;;;;5036935;28;20036;-75
2022/04/02 03:47:08;;;;;;;3.67;2.15;;;1.00;99.90;;;;;;5053864;28;20044;-75
2022/04/02 03:49:34;;;;;;;4.05;2.42;;;1.10;99.90;;;;;;5053620;28;20033;-75
2022/04/02 03:52:00;;;;;;;5.85;3.17;;;1.10;99.90;;;;;;5071127;22;20079;-70
2022/04/02 03:54:25;;;;;;;4.15;2.63;;;1.00;99.90;;;;;;5050414;28;20067;-70
2022/04/02 03:56:51;;;;;;;4.82;2.33;;;1.00;99.90;;;;;;5051708;28;20058;-70
2022/04/02 03:59:16;;;;;;;5.53;2.58;;;1.00;99.90;;;;;;5049088;28;20098;-70
2022/04/02 04:01:42;;;;;;;6.97;2.53;;;1.00;99.90;;;;;;5049905;28;20041;-70
2022/04/02 04:04:08;;;;;;;4.90;2.58;;;1.00;99.90;;;;;;5050153;28;20076;-70
2022/04/02 04:06:34;;;;;;;5.72;2.90;;;1.00;99.90;;;;;;5051629;28;20033;-70
2022/04/02 04:09:00;;;;;;;4.13;2.55;;;1.00;99.90;;;;;;5051658;28;20120;-70
2022/04/02 04:11:26;;;;;;;5.28;2.33;;;1.00;99.90;;;;;;5051336;28;20037;-70
2022/04/02 04:13:53;;;;;;;5.13;2.10;;;1.00;99.90;;;;;;5050138;28;20436;-69
2022/04/02 04:16:19;;;;;;;5.47;2.05;;;1.00;99.90;;;;;;5051456;28;20128;-70
2022/04/02 04:18:45;;;;;;;5.97;2.45;;;1.00;99.90;;;;;;5051359;28;20080;-70
2022/04/02 04:21:12;;;;;;;4.85;2.08;;;1.00;99.90;;;;;;5051417;28;20037;-69
2022/04/02 04:23:38;;;;;;;5.13;2.80;;;1.10;99.90;;;;;;5054540;28;20379;-70
2022/04/02 04:26:04;;;;;;;6.90;3.47;;;1.00;99.90;;;;;;5056059;28;20048;-70
2022/04/02 04:28:29;;;;;;;4.45;2.25;;;1.00;99.90;;;;;;5055303;28;20037;-70
2022/04/02 04:30:55;;;;;;;4.20;2.00;;;1.00;99.90;;;;;;5054106;28;20120;-70
2022/04/02 04:33:20;;;;;;;7.93;2.55;;;1.10;99.90;;;;;;5055091;28;20053;-70
2022/04/02 04:35:46;;;;;;;6.20;2.20;;;1.10;99.90;;;;;;5053946;28;20036;-70
2022/04/02 04:38:12;;;;;;;6.00;2.42;;;1.20;99.90;;;;;;5055401;28;20041;-70
2022/04/02 04:40:38;;;;;;;4.95;2.63;;;1.20;99.90;;;;;;5054967;28;20509;-70
2022/04/02 04:43:03;;;;;;;4.53;2.15;;;1.20;99.90;;;;;;5054905;28;20075;-70
2022/04/02 04:45:29;;;;;;;6.07;2.10;;;1.20;99.90;;;;;;5055018;28;20068;-70
2022/04/02 04:47:55;;;;;;;8.07;2.72;;;1.30;99.90;;;;;;5054891;28;20036;-70
2022/04/02 04:50:20;;;;;;;5.57;2.42;;;1.30;99.90;;;;;;5054821;28;20044;-70
2022/04/02 04:52:46;;;;;;;7.72;2.60;;;1.40;99.90;;;;;;5053354;28;20106;-70
2022/04/02 04:55:11;;;;;;;4.78;2.75;;;1.40;99.90;;;;;;5054903;28;20402;-70
2022/04/02 04:57:37;;;;;;;11.82;5.93;;;1.50;99.90;;;;;;5054697;28;20037;-70
2022/04/02 05:00:04;;;;;;;6.60;2.80;;;1.50;99.90;;;;;;5054277;28;20075;-70
2022/04/02 05:02:30;;;;;;;5.15;2.63;;;1.60;99.90;;;;;;5054413;28;20175;-70
2022/04/02 05:04:56;;;;;;;11.40;4.18;;;1.60;99.90;;;;;;5054828;28;20119;-70
2022/04/02 05:07:22;;;;;;;10.93;4.07;;;1.70;99.90;;;;;;5054306;28;20044;-70
2022/04/02 05:09:48;;;;;;;7.75;3.17;;;1.70;99.90;;;;;;5054511;28;20025;-70
2022/04/02 05:12:15;;;;;;;9.98;3.97;;;1.80;99.90;;;;;;5052858;28;20494;-70
2022/04/02 05:14:41;;;;;;;14.77;4.97;;;1.80;99.90;;;;;;5054253;28;20498;-70
2022/04/02 05:17:06;;;;;;;10.45;4.45;;;1.90;99.90;;;;;;5054114;28;20119;-70
2022/04/02 05:19:32;;;;;;;14.02;4.55;;;1.90;99.90;;;;;;5054455;28;20081;-70
2022/04/02 05:21:57;;;;;;;11.95;4.93;;;2.00;99.90;;;;;;5054005;28;20087;-70
2022/04/02 05:24:23;;;;;;;11.82;5.00;;;2.00;99.90;;;;;;5054224;28;20037;-70
2022/04/02 05:26:49;;;;;;;17.70;6.05;;;2.00;99.90;;;;;;5052769;28;20045;-70
2022/04/02 05:29:15;;;;;;;19.23;6.22;;;2.00;99.90;;;;;;5054141;28;20040;-70
2022/04/02 05:31:41;;;;;;;18.55;6.45;;;2.00;99.90;;;;;;5052409;28;20037;-70
2022/04/02 05:34:08;;;;;;;21.30;6.40;;;2.00;99.90;;;;;;5052634;28;20060;-70
2022/04/02 05:36:34;;;;;;;15.30;6.43;;;2.00;99.90;;;;;;5052685;28;20094;-70
2022/04/02 05:38:59;;;;;;;12.65;5.22;;;2.10;99.90;;;;;;5053996;28;20453;-70
2022/04/02 05:41:25;;;;;;;13.88;4.22;;;2.10;99.90;;;;;;5053452;28;20045;-70
2022/04/02 05:43:51;;;;;;;7.47;3.47;;;2.10;99.90;;;;;;5053591;28;20061;-70
2022/04/02 05:46:16;;;;;;;8.05;3.70;;;2.20;99.90;;;;;;5053682;28;20040;-70
2022/04/02 05:48:42;;;;;;;7.07;2.85;;;2.20;99.90;;;;;;5053554;28;20052;-70
2022/04/02 05:51:08;;;;;;;9.15;3.28;;;2.20;99.90;;;;;;5053518;28;20048;-70
2022/04/02 05:53:34;;;;;;;5.82;2.85;;;2.20;99.90;;;;;;5053430;28;20052;-70
2022/04/02 05:56:01;;;;;;;7.13;2.70;;;2.20;99.90;;;;;;5053363;28;20037;-70
2022/04/02 05:58:27;;;;;;;6.38;3.15;;;2.20;99.90;;;;;;5053415;28;20494;-70
2022/04/02 06:00:53;;;;;;;9.63;4.35;;;2.20;99.90;;;;;;5053069;28;20041;-70
2022/04/02 06:03:22;;;;;;;8.05;3.60;;;2.30;99.90;;;;;;5051980;28;20486;-70
2022/04/02 06:05:48;;;;;;;4.45;2.65;;;2.40;99.90;;;;;;5053503;28;20037;-71
2022/04/02 06:08:15;;;;;;;5.32;3.13;;;2.50;99.90;;;;;;5053409;28;20143;-70
2022/04/02 06:10:43;;;;;;;4.65;2.80;;;2.60;99.90;;;;;;5053013;28;20401;-70
2022/04/02 06:13:08;;;;;;;5.28;2.80;;;2.80;99.90;;;;;;5051907;28;20529;-71
2022/04/02 06:15:34;;;;;;;7.68;2.70;;;2.90;99.90;;;;;;5051984;28;20048;-70
2022/04/02 06:18:00;;;;;;;4.88;2.83;;;3.10;99.90;;;;;;5051767;28;20520;-71
2022/04/02 06:20:26;;;;;;;7.40;3.13;;;3.20;99.90;;;;;;5052826;28;20045;-70
2022/04/02 06:22:51;;;;;;;3.70;2.60;;;3.40;99.90;;;;;;5051466;28;20048;-70
2022/04/02 06:25:17;;;;;;;11.98;3.17;;;3.50;99.90;;;;;;5052940;28;20044;-70
2022/04/02 06:27:47;;;;;;;6.72;3.10;;;3.60;99.90;;;;;;5052862;28;20125;-70
2022/04/02 06:30:16;;;;;;;7.22;2.80;;;3.80;99.90;;;;;;5052477;28;20525;-71
2022/04/02 06:32:42;;;;;;;4.05;2.40;;;3.80;99.90;;;;;;5052924;28;20045;-71
2022/04/02 06:35:08;;;;;;;5.60;2.67;;;4.10;99.90;;;;;;5052486;28;20163;-70
2022/04/02 06:37:36;;;;;;;4.05;2.13;;;4.20;99.90;;;;;;5052688;28;20043;-70
2022/04/02 06:40:04;;;;;;;4.78;2.03;;;4.40;99.90;;;;;;5052332;28;20055;-71
2022/04/02 06:42:30;;;;;;;3.88;2.15;;;4.40;99.20;;;;;;5051058;28;20053;-70
2022/04/02 06:44:55;;;;;;;4.07;2.58;;;4.50;97.90;;;;;;5052185;28;20117;-70
2022/04/02 06:47:29;;;;;;;4.53;1.73;;;4.60;96.40;;;;;;5051194;28;20120;-69
2022/04/02 06:49:55;;;;;;;6.43;2.20;;;4.60;94.70;;;;;;5050771;28;20397;-70
2022/04/02 06:52:22;;;;;;;6.35;2.47;;;4.60;95.00;;;;;;5052480;28;20037;-70
2022/04/02 06:54:48;;;;;;;5.22;1.95;;;4.70;94.20;;;;;;5051165;28;20033;-69
2022/04/02 06:57:18;;;;;;;3.45;2.40;;;4.80;93.70;;;;;;5052194;28;20463;-70
2022/04/02 06:59:44;;;;;;;5.57;2.08;;;4.70;94.10;;;;;;5052135;28;20095;-70
2022/04/02 07:02:10;;;;;;;3.03;2.22;;;4.60;93.70;;;;;;5052118;28;20441;-69
2022/04/02 07:04:35;;;;;;;5.45;3.03;;;4.60;94.20;;;;;;5050748;28;20595;-70
2022/04/02 07:07:01;;;;;;;4.72;2.80;;;4.60;94.20;;;;;;5051861;28;20041;-70
2022/04/02 07:09:27;;;;;;;7.40;3.17;;;4.60;94.50;;;;;;5051909;28;20132;-69
2022/04/02 07:11:52;;;;;;;5.57;2.58;;;4.60;94.30;;;;;;5051409;28;20033;-70
2022/04/02 07:14:18;;;;;;;7.57;2.90;;;4.60;93.60;;;;;;5052108;28;20040;-69
2022/04/02 07:16:43;;;;;;;8.40;3.05;;;4.70;92.60;;;;;;5052130;28;20136;-70
2022/04/02 07:19:10;;;;;;;6.40;2.47;;;4.60;92.50;;;;;;5052069;28;20069;-70
2022/04/02 07:21:39;;;;;;;4.05;1.73;;;4.50;92.30;;;;;;5051483;28;20561;-70
2022/04/02 07:24:06;;;;;;;4.30;1.55;;;4.50;92.20;;;;;;5051651;28;20041;-71
2022/04/02 07:26:32;;;;;;;3.83;1.67;;;4.20;90.10;;;;;;5047051;28;20060;-69
2022/04/02 07:28:59;;;;;;;3.78;1.65;;;4.00;90.50;;;;;;5050523;28;20067;-69
2022/04/02 07:31:25;;;;;;;3.58;1.67;;;3.90;93.00;;;;;;5051301;28;20064;-69
2022/04/02 07:33:50;;;;;;;3.58;1.80;;;3.80;95.90;;;;;;5050815;28;20509;-69
2022/04/02 07:36:20;;;;;;;4.53;1.85;;;3.70;98.70;;;;;;5051073;28;20041;-69
2022/04/02 07:39:12;;;;;;;4.50;2.33;;;3.60;99.90;;;;;;5051022;28;20402;-69
2022/04/02 07:42:04;;;;;;;2.67;1.67;;;3.60;99.90;;;;;;5051371;28;20075;-69
2022/04/02 07:44:52;;;;;;;5.55;2.42;;;3.60;99.90;;;;;;5044275;28;20092;-69
2022/04/02 07:47:23;;;;;;;3.85;2.10;;;3.60;99.90;;;;;;5050011;28;20065;-70
2022/04/02 07:49:54;;;;;;;5.28;2.10;;;3.70;99.90;;;;;;5049779;28;20056;-69
2022/04/02 07:52:22;;;;;;;5.03;2.42;;;3.70;99.90;;;;;;5047503;28;20091;-69
2022/04/02 07:54:55;;;;;;;3.58;1.65;;;3.80;99.90;;;;;;5033272;28;20049;-69
2022/04/02 07:57:26;;;;;;;4.55;1.85;;;3.80;99.90;;;;;;5051129;28;20037;-69
2022/04/02 07:59:59;;;;;;;4.53;1.48;;;3.90;99.90;;;;;;5055333;28;20068;-69
2022/04/02 08:02:39;;;;;;;2.20;1.60;;;3.90;99.90;;;;;;5055467;28;20178;-69
2022/04/02 08:05:18;;;;;;;2.85;1.60;;;3.80;99.90;;;;;;5055535;28;20040;-69
2022/04/02 08:07:49;;;;;;;4.68;1.65;;;3.90;99.80;;;;;;5054058;28;20461;-69
2022/04/02 08:10:20;;;;;;;3.40;2.05;;;4.10;99.60;;;;;;5053678;28;20120;-69
2022/04/02 08:12:45;;;;;;;3.63;1.80;;;4.30;99.40;;;;;;5053687;28;20052;-69
2022/04/02 08:15:16;;;;;;;4.38;1.80;;;4.30;98.60;;;;;;5055182;28;20049;-69
2022/04/02 08:17:43;;;;;;;3.50;1.63;;;4.40;98.20;;;;;;5055307;28;20124;-69
2022/04/02 08:20:10;;;;;;;3.50;1.42;;;4.30;97.70;;;;;;5054317;28;20056;-69
2022/04/02 08:22:36;;;;;;;4.13;1.50;;;4.50;97.70;;;;;;5054817;28;20174;-69
2022/04/02 08:25:02;;;;;;;2.83;2.10;;;4.50;98.00;;;;;;5055259;28;20513;-69
2022/04/02 08:27:42;;;;;;;3.50;1.65;;;4.70;98.00;;;;;;5054778;28;20036;-69
2022/04/02 08:30:18;;;;;;;6.97;2.00;;;4.70;96.60;;;;;;5054048;28;20036;-69
2022/04/02 08:33:07;;;;;;;4.57;1.73;;;4.70;94.80;;;;;;5052805;28;20077;-70
2022/04/02 08:35:41;;;;;;;8.70;2.92;;;4.70;92.20;;;;;;5030866;28;20052;-70
2022/04/02 08:38:27;;;;;;;4.63;2.78;;;4.60;91.00;;;;;;5054502;28;20048;-70
2022/04/02 08:41:03;;;;;;;9.38;2.08;;;4.70;89.70;;;;;;5052126;28;20077;-69
2022/04/02 08:44:07;;;;;;;2.83;1.67;;;4.70;84.50;;;;;;5054516;28;20068;-69
2022/04/02 08:47:00;;;;;;;7.97;1.77;;;4.70;81.20;;;;;;5054559;28;20037;-69
2022/04/02 08:49:54;;;;;;;4.23;1.70;;;4.70;80.80;;;;;;5054699;28;20048;-69
2022/04/02 08:52:43;;;;;;;9.55;2.88;;;4.70;80.70;;;;;;5054842;28;20287;-70
2022/04/02 08:55:35;;;;;;;7.68;2.95;;;4.70;81.00;;;;;;5054561;28;20133;-69
2022/04/02 08:58:23;;;;;;;6.03;1.60;;;4.70;80.20;;;;;;5016638;28;20048;-69
2022/04/02 09:01:09;;;;;;;4.30;1.63;;;4.80;81.00;;;;;;5053811;28;20045;-69
2022/04/02 09:03:38;;;;;;;3.72;1.73;;;4.70;80.50;;;;;;5053582;28;21298;-70
2022/04/02 09:06:27;;;;;;;5.05;1.63;;;4.70;79.50;;;;;;5053922;28;20045;-69
2022/04/02 09:09:06;;;;;;;3.42;1.55;;;4.60;80.50;;;;;;5052752;28;20041;-70
2022/04/02 09:11:44;;;;;;;3.78;1.73;;;4.50;80.00;;;;;;5053981;28;20048;-69
2022/04/02 09:14:30;;;;;;;5.90;1.77;;;4.60;80.40;;;;;;5054190;28;20044;-69
2022/04/02 09:17:11;;;;;;;4.43;2.10;;;4.60;79.30;;;;;;5052858;28;20041;-68
2022/04/02 09:19:54;;;;;;;6.13;2.20;;;4.60;79.10;;;;;;5053795;28;20127;-68
2022/04/02 09:22:55;;;;;;;6.80;2.30;;;4.70;79.40;;;;;;5047385;28;20387;-69
2022/04/02 09:25:37;;;;;;;7.45;2.90;;;4.70;79.30;;;;;;5053797;28;20473;-69
2022/04/02 09:28:10;;;;;;;5.60;1.95;;;4.80;78.70;;;;;;5053732;28;20740;-69
2022/04/02 09:30:54;;;;;;;4.45;1.63;;;4.90;78.50;;;;;;5052675;28;20112;-69
2022/04/02 09:33:40;;;;;;;4.40;1.48;;;4.90;78.10;;;;;;5049278;28;20091;-69
2022/04/02 09:36:21;;;;;;;2.28;1.50;;;5.10;76.40;;;;;;5053819;28;20048;-70
2022/04/02 09:39:07;;;;;;;4.70;1.42;;;5.20;75.50;;;;;;5053769;28;20041;-70
2022/04/02 09:41:44;;;;;;;4.50;1.80;;;5.30;74.80;;;;;;5052845;28;20056;-70
2022/04/02 09:44:29;;;;;;;3.67;1.40;;;5.40;72.60;;;;;;5049380;28;20041;-69
2022/04/02 09:47:21;;;;;;;3.40;1.27;;;5.40;70.60;;;;;;5053444;28;20037;-69
2022/04/02 09:50:10;;;;;;;1.90;1.15;;;5.30;68.20;;;;;;5052865;28;20036;-69
2022/04/02 09:52:45;;;;;;;4.63;1.00;;;5.10;68.50;;;;;;5051830;28;20398;-70
2022/04/02 09:55:15;;;;;;;3.67;1.27;;;5.00;68.00;;;;;;5053521;28;20044;-69
2022/04/02 09:57:53;;;;;;;4.03;1.20;;;5.00;68.60;;;;;;5053329;28;20084;-69
2022/04/02 10:00:21;;;;;;;1.75;1.20;;;4.90;70.50;;;;;;5052884;28;20052;-69
2022/04/02 10:03:06;;;;;;;4.53;1.40;;;4.80;70.70;;;;;;5052999;28;20029;-69
2022/04/02 10:05:54;;;;;;;4.60;1.65;;;4.90;71.30;;;;;;5047794;28;20119;-70
2022/04/02 10:08:28;;;;;;;2.83;1.27;;;5.00;74.20;;;;;;5013012;28;20040;-70
2022/04/02 10:10:56;;;;;;;3.75;2.08;;;5.20;75.20;;;;;;5052554;28;20106;-70
2022/04/02 10:13:22;;;;;;;6.47;1.63;;;5.40;74.70;;;;;;5052512;28;20029;-70
2022/04/02 10:15:51;;;;;;;4.10;2.20;;;5.40;73.50;;;;;;5052515;28;20558;-70
2022/04/02 10:18:21;;;;;;;2.80;1.20;;;5.40;71.90;;;;;;5051605;28;20041;-69
2022/04/02 10:20:48;;;;;;;2.85;1.10;;;5.40;69.20;;;;;;5051646;28;20040;-70
2022/04/02 10:23:23;;;;;;;7.15;1.65;;;5.60;67.00;;;;;;5052421;28;20037;-70
2022/04/02 10:26:15;;;;;;;4.80;1.35;;;5.80;68.20;;;;;;5052888;28;20029;-70
2022/04/02 10:28:56;;;;;;;3.95;1.90;;;5.80;69.20;;;;;;5052743;28;20029;-69
2022/04/02 10:31:57;;;;;;;5.63;1.85;;;5.40;68.30;;;;;;5052483;28;20075;-69
2022/04/02 10:34:50;;;;;;;7.35;1.70;;;5.30;69.30;;;;;;5029216;28;20048;-69
2022/04/02 10:37:17;;;;;;;3.38;1.13;;;5.10;66.50;;;;;;5052674;28;20044;-70
2022/04/02 10:39:57;;;;;;;3.63;1.75;;;5.00;67.60;;;;;;5052452;28;20037;-69
2022/04/02 10:42:34;;;;;;;3.50;1.38;;;4.90;67.50;;;;;;5052196;28;20234;-70
2022/04/02 10:45:03;;;;;;;5.03;1.67;;;4.90;67.50;;;;;;5052579;28;20045;-70
2022/04/02 10:47:30;;;;;;;3.60;2.00;;;4.90;67.50;;;;;;5052442;28;20037;-69
2022/04/02 10:50:03;;;;;;;7.10;1.40;;;5.00;68.40;;;;;;5050946;28;20041;-70
2022/04/02 10:52:30;;;;;;;7.47;1.40;;;5.00;69.20;;;;;;5052030;28;20045;-69
2022/04/02 10:54:56;;;;;;;5.20;2.25;;;5.10;70.80;;;;;;5052090;28;20498;-69
2022/04/02 10:57:22;;;;;;;6.38;2.05;;;5.20;70.20;;;;;;5052327;28;20048;-70
2022/04/02 10:59:50;;;;;;;4.45;2.50;;;5.50;67.70;;;;;;5052177;28;20124;-70
2022/04/02 11:02:23;;;;;;;7.05;2.30;;;5.50;67.60;;;;;;5050577;28;20048;-69
2022/04/02 11:05:02;;;;;;;4.10;1.77;;;5.60;69.10;;;;;;5051770;28;20045;-69
2022/04/02 11:07:30;;;;;;;4.30;1.58;;;5.60;68.70;;;;;;5052264;28;20048;-70
2022/04/02 11:10:01;;;;;;;3.00;1.30;;;5.60;68.00;;;;;;5051689;28;20076;-70
2022/04/02 11:12:33;;;;;;;4.45;1.70;;;5.50;68.60;;;;;;5051819;28;20098;-70
2022/04/02 11:15:21;;;;;;;3.63;1.27;;;5.60;66.80;;;;;;5050564;28;20510;-69
2022/04/02 11:17:48;;;;;;;2.08;1.40;;;5.60;65.60;;;;;;5051499;28;20111;-68
2022/04/02 11:20:22;;;;;;;5.97;1.15;;;5.50;65.80;;;;;;5051239;28;20224;-69
2022/04/02 11:22:51;;;;;;;3.38;1.15;;;5.50;65.50;;;;;;5032346;28;20045;-68
2022/04/02 11:25:36;;;;;;;3.45;1.23;;;5.50;65.50;;;;;;5050398;28;20098;-69
2022/04/02 11:28:04;;;;;;;1.60;0.98;;;5.60;64.30;;;;;;5051272;28;20047;-69
2022/04/02 11:30:32;;;;;;;2.05;1.35;;;5.60;61.60;;;;;;5051404;28;20098;-69
2022/04/02 11:33:10;;;;;;;3.50;1.88;;;5.60;62.20;;;;;;5051621;28;20059;-69
2022/04/02 11:35:44;;;;;;;5.68;1.52;;;5.70;63.60;;;;;;5051445;28;20045;-69
2022/04/02 11:38:14;;;;;;;4.30;1.73;;;5.60;65.20;;;;;;5051416;28;20044;-68
2022/04/02 11:40:45;;;;;;;2.22;1.55;;;5.40;66.80;;;;;;5051039;28;20123;-68
2022/04/02 11:43:13;;;;;;;2.58;1.70;;;5.20;68.20;;;;;;5049532;28;20052;-69
2022/04/02 11:45:40;;;;;;;5.60;2.08;;;5.20;69.30;;;;;;5051331;28;20080;-70
2022/04/02 11:48:11;;;;;;;3.20;1.52;;;5.20;67.30;;;;;;5051464;28;20033;-69
2022/04/02 11:50:45;;;;;;;6.85;1.70;;;5.30;66.30;;;;;;5050956;28;20044;-69
2022/04/02 11:53:13;;;;;;;4.93;1.83;;;5.20;64.70;;;;;;5051117;28;20080;-69
2022/04/02 11:55:40;;;;;;;5.85;2.47;;;5.40;62.90;;;;;;5052083;28;20056;-70
2022/04/02 11:58:10;;;;;;;3.28;1.40;;;5.60;59.80;;;;;;5051511;28;20044;-70
2022/04/02 12:00:38;;;;;;;6.05;1.30;;;5.70;60.50;;;;;;5051061;28;20045;-70
2022/04/02 12:03:19;;;;;;;2.65;1.23;;;5.70;57.80;;;;;;5051179;28;20048;-70
2022/04/02 12:05:44;;;;;;;2.70;1.95;;;5.80;57.70;;;;;;5051641;28;20096;-70
2022/04/02 12:08:25;;;;;;;6.80;2.08;;;5.90;56.80;;;;;;5049400;28;20118;-70
2022/04/02 12:10:50;;;;;;;4.10;1.83;;;6.10;55.50;;;;;;5048520;28;20029;-70
2022/04/02 12:13:16;;;;;;;3.28;1.17;;;6.10;54.90;;;;;;5049534;28;20048;-70
2022/04/02 12:16:00;;;;;;;4.97;1.20;;;6.10;55.10;;;;;;5050592;28;20029;-70
2022/04/02 12:18:26;;;;;;;4.18;1.25;;;6.10;55.30;;;;;;5051301;28;20116;-70
2022/04/02 12:21:05;;;;;;;4.05;1.02;;;6.20;55.80;;;;;;5050598;28;20502;-71
2022/04/02 12:23:31;;;;;;;5.53;1.63;;;6.10;53.40;;;;;;5049712;28;20064;-72
2022/04/02 12:25:59;;;;;;;7.07;2.08;;;6.10;54.80;;;;;;5040290;28;20041;-73
2022/04/02 12:28:25;;;;;;;3.65;1.80;;;6.20;53.50;;;;;;5039823;28;20048;-70
2022/04/02 12:30:53;;;;;;;3.75;2.28;;;6.20;54.20;;;;;;5045993;28;20036;-73
2022/04/02 12:33:24;;;;;;;2.97;1.95;;;6.40;54.60;;;;;;5050357;28;20044;-74
2022/04/02 12:36:09;;;;;;;3.88;1.40;;;6.60;53.70;;;;;;5048968;28;20486;-76
2022/04/02 12:38:40;;;;;;;2.08;1.33;;;6.50;56.70;;;;;;5048878;28;20045;-73
2022/04/02 12:41:19;;;;;;;6.25;2.00;;;6.50;55.50;;;;;;5050042;28;20041;-72
2022/04/02 12:43:47;;;;;;;9.00;2.05;;;6.10;56.20;;;;;;5046038;28;20077;-70
2022/04/02 12:46:26;;;;;;;4.80;2.20;;;6.00;57.90;;;;;;5054452;28;20509;-70
2022/04/02 12:48:53;;;;;;;6.30;1.40;;;5.90;58.70;;;;;;5049657;28;20095;-70
2022/04/02 12:51:19;;;;;;;3.85;1.50;;;5.80;56.60;;;;;;5054120;28;20044;-70
2022/04/02 12:53:55;;;;;;;4.07;1.20;;;5.70;57.30;;;;;;5054267;28;20056;-70
2022/04/02 12:56:25;;;;;;;4.03;1.63;;;5.80;57.70;;;;;;5053156;28;20502;-70
2022/04/02 12:58:52;;;;;;;4.18;1.95;;;5.70;57.20;;;;;;5054467;28;20048;-70
2022/04/02 13:01:30;;;;;;;3.38;1.90;;;5.70;58.40;;;;;;5054062;28;20040;-70
2022/04/02 13:04:02;;;;;;;5.68;1.85;;;5.70;59.70;;;;;;5054080;28;20092;-70
2022/04/02 13:06:29;;;;;;;4.70;1.55;;;5.80;60.80;;;;;;5053037;28;20052;-70
2022/04/02 13:09:04;;;;;;;4.72;1.75;;;5.90;60.50;;;;;;5036437;28;20043;-72
2022/04/02 13:11:56;;;;;;;3.00;1.40;;;5.90;59.20;;;;;;5052677;28;20098;-70
2022/04/02 13:14:24;;;;;;;2.30;1.50;;;5.90;59.30;;;;;;5047731;28;20037;-69
2022/04/02 13:16:53;;;;;;;5.57;1.70;;;5.90;58.30;;;;;;5053791;28;20528;-69